createdAt,value
2019-05-14T00:00:26.496Z,28.2
2019-05-14T00:01:31.285Z,28.1
2019-05-14T00:02:33.979Z,28.2
2019-05-14T00:03:36.258Z,28.3
2019-05-14T00:04:38.685Z,28.3
2019-05-14T00:05:44.578Z,28.1
2019-05-14T00:06:46.466Z,28.2
2019-05-14T00:07:48.344Z,28.2
2019-05-14T00:08:54.283Z,28.3
2019-05-14T00:09:56.440Z,28.2
2019-05-14T00:11:01.193Z,28.1
2019-05-14T00:12:03.869Z,28.2
2019-05-14T00:13:05.741Z,28.1
2019-05-14T00:14:08.393Z,28.1
2019-05-14T00:15:13.847Z,28.2
2019-05-14T00:16:16.287Z,28.1
2019-05-14T00:17:18.175Z,28.2
2019-05-14T00:18:24.123Z,28.2
2019-05-14T00:19:26.558Z,28.2
2019-05-14T00:20:31.145Z,28.3
2019-05-14T00:21:33.974Z,28.4
2019-05-14T00:22:36.417Z,28.4
2019-05-14T00:23:38.304Z,28.3
2019-05-14T00:24:43.149Z,28.4
2019-05-14T00:25:45.031Z,28.6
2019-05-14T00:26:47.156Z,28.3
2019-05-14T00:27:54.058Z,28.3
2019-05-14T00:28:56.233Z,28.4
2019-05-14T00:29:58.406Z,28.1
2019-05-14T00:31:04.827Z,28.2
2019-05-14T00:32:07.428Z,28.2
2019-05-14T00:33:12.106Z,28.2
2019-05-14T00:34:14.533Z,28.4
2019-05-14T00:35:16.691Z,28
2019-05-14T00:36:18.561Z,28.2
2019-05-14T00:37:24.027Z,28.3
2019-05-14T00:38:26.461Z,28.4
2019-05-14T00:39:28.584Z,28.3
2019-05-14T00:40:32.977Z,28.2
2019-05-14T00:41:35.400Z,28.2
2019-05-14T00:42:37.825Z,28.1
2019-05-14T00:43:43.766Z,28.3
2019-05-14T00:44:54.228Z,28.3
2019-05-14T00:45:51.262Z,28.2
2019-05-14T00:46:53.776Z,28.3
2019-05-14T00:47:56.225Z,28.4
2019-05-14T00:48:58.386Z,28.1
2019-05-14T00:50:02.275Z,28
2019-05-14T00:51:04.446Z,28.4
2019-05-14T00:52:06.587Z,28.4
2019-05-14T00:53:09.017Z,28.3
2019-05-14T00:54:14.471Z,28.5
2019-05-14T00:55:16.617Z,28.4
2019-05-14T00:56:18.753Z,28.3
2019-05-14T00:57:24.240Z,28.3
2019-05-14T00:58:26.676Z,28.3
2019-05-14T00:59:28.563Z,28.3
2019-05-14T01:00:33.135Z,28.4
2019-05-14T01:01:35.546Z,28.3
2019-05-14T01:02:37.696Z,28.4
2019-05-14T01:03:43.842Z,28.4
2019-05-14T01:04:46.271Z,28.4
2019-05-14T01:05:48.429Z,28.1
2019-05-14T01:06:54.570Z,28.3
2019-05-14T01:07:56.729Z,28.5
2019-05-14T01:09:01.282Z,28.1
2019-05-14T01:10:04.155Z,28.3
2019-05-14T01:11:06.582Z,28.4
2019-05-14T01:12:08.744Z,28.3
2019-05-14T01:13:14.686Z,28.4
2019-05-14T01:14:17.119Z,28.1
2019-05-14T01:15:21.842Z,28.3
2019-05-14T01:16:24.293Z,28.4
2019-05-14T01:17:26.726Z,28.3
2019-05-14T01:18:29.145Z,28.6
2019-05-14T01:19:34.610Z,28.3
2019-05-14T01:20:36.762Z,28.4
2019-05-14T01:21:38.639Z,28.3
2019-05-14T01:22:44.322Z,28.3
2019-05-14T01:23:46.774Z,28.3
2019-05-14T01:24:53.858Z,28.3
2019-05-14T01:25:56.010Z,28.6
2019-05-14T01:26:58.436Z,28.3
2019-05-14T01:28:03.050Z,28.2
2019-05-14T01:29:04.913Z,28.3
2019-05-14T01:30:07.372Z,28.2
2019-05-14T01:31:11.319Z,28.6
2019-05-14T01:32:16.916Z,28.2
2019-05-14T01:33:21.195Z,28.4
2019-05-14T01:34:23.748Z,28.3
2019-05-14T01:35:25.902Z,28.5
2019-05-14T01:36:27.796Z,28.5
2019-05-14T01:37:32.502Z,28.3
2019-05-14T01:38:34.948Z,28.3
2019-05-14T01:39:37.109Z,28.4
2019-05-14T01:40:44.016Z,28.1
2019-05-14T01:41:46.180Z,28.2
2019-05-14T01:42:49.222Z,28.3
2019-05-14T01:43:54.206Z,28.3
2019-05-14T01:44:56.367Z,28.4
2019-05-14T01:45:58.509Z,28.2
2019-05-14T01:47:03.973Z,28.3
2019-05-14T01:48:06.393Z,28.5
2019-05-14T01:49:08.550Z,28.3
2019-05-14T01:50:14.496Z,28.3
2019-05-14T01:51:16.659Z,28.2
2019-05-14T01:52:19.094Z,28.2
2019-05-14T01:53:23.396Z,28.2
2019-05-14T01:54:25.848Z,28.4
2019-05-14T01:55:28.290Z,28.1
2019-05-14T01:56:32.949Z,28.2
2019-05-14T01:57:34.876Z,28.5
2019-05-14T01:58:37.649Z,28.4
2019-05-14T01:59:42.962Z,28
2019-05-14T02:00:45.479Z,28.2
2019-05-14T02:01:47.891Z,28.2
2019-05-14T02:02:54.328Z,28.2
2019-05-14T02:03:56.756Z,28.4
2019-05-14T02:05:01.696Z,28.2
2019-05-14T02:06:04.168Z,28.3
2019-05-14T02:07:06.322Z,28.4
2019-05-14T02:08:08.968Z,28.3
2019-05-14T02:09:13.566Z,28.4
2019-05-14T02:10:15.474Z,28.1
2019-05-14T02:11:17.643Z,28
2019-05-14T02:12:23.998Z,28.3
2019-05-14T02:13:26.155Z,28.3
2019-05-14T02:14:28.044Z,28.3
2019-05-14T02:15:39.004Z,28.3
2019-05-14T02:16:38.974Z,28.2
2019-05-14T02:17:43.843Z,28.3
2019-05-14T02:18:46.296Z,28.3
2019-05-14T02:19:48.190Z,28.1
2019-05-14T02:20:52.428Z,28.2
2019-05-14T02:21:54.313Z,28.3
2019-05-14T02:22:56.784Z,28.2
2019-05-14T02:24:03.874Z,28
2019-05-14T02:25:06.015Z,28.1
2019-05-14T02:26:08.187Z,28.3
2019-05-14T02:27:13.858Z,28.2
2019-05-14T02:28:16.017Z,28.2
2019-05-14T02:29:17.818Z,28.3
2019-05-14T02:30:33.064Z,28.1
2019-05-14T02:31:29.276Z,28.3
2019-05-14T02:32:31.823Z,28.3
2019-05-14T02:33:34.244Z,28.1
2019-05-14T02:34:39.424Z,28.3
2019-05-14T02:35:41.117Z,28.5
2019-05-14T02:36:44.707Z,28.2
2019-05-14T02:37:50.867Z,28.3
2019-05-14T02:38:53.028Z,28.1
2019-05-14T02:39:55.485Z,28.1
2019-05-14T02:41:00.949Z,28.1
2019-05-14T02:42:03.124Z,28.2
2019-05-14T02:43:05.578Z,28.2
2019-05-14T02:44:11.034Z,28.3
2019-05-14T02:45:13.181Z,28.2
2019-05-14T02:46:17.300Z,28.2
2019-05-14T02:47:20.332Z,28.3
2019-05-14T02:48:22.771Z,28.4
2019-05-14T02:49:24.921Z,28.2
2019-05-14T02:50:31.819Z,28.2
2019-05-14T02:51:33.978Z,28.2
2019-05-14T02:52:41.522Z,28.2
2019-05-14T02:53:43.945Z,28.3
2019-05-14T02:54:49.216Z,28.2
2019-05-14T02:55:51.057Z,28.2
2019-05-14T02:56:53.500Z,28.1
2019-05-14T02:57:59.514Z,28.2
2019-05-14T02:59:04.762Z,28.4
2019-05-14T03:00:05.907Z,28.2
2019-05-14T03:01:11.370Z,28.3
2019-05-14T03:02:13.788Z,28.2
2019-05-14T03:03:20.692Z,28.2
2019-05-14T03:04:23.137Z,28.3
2019-05-14T03:05:25.287Z,28.1
2019-05-14T03:06:31.237Z,28.2
2019-05-14T03:07:33.675Z,28.2
2019-05-14T03:08:38.982Z,28.2
2019-05-14T03:09:41.453Z,27.9
2019-05-14T03:10:43.877Z,28.2
2019-05-14T03:11:48.474Z,28.2
2019-05-14T03:12:51.311Z,28.2
2019-05-14T03:13:53.765Z,28.1
2019-05-14T03:14:58.785Z,28
2019-05-14T03:16:18.960Z,28
2019-05-14T03:17:06.177Z,28
2019-05-14T03:18:11.640Z,28
2019-05-14T03:19:13.527Z,27.9
2019-05-14T03:20:15.966Z,28.2
2019-05-14T03:21:21.439Z,28
2019-05-14T03:22:27.928Z,27.9
2019-05-14T03:23:30.053Z,28
2019-05-14T03:24:32.556Z,28.2
2019-05-14T03:25:35.196Z,27.9
2019-05-14T03:26:41.643Z,28
2019-05-14T03:27:43.798Z,27.8
2019-05-14T03:28:50.700Z,27.9
2019-05-14T03:29:53.126Z,28.1
2019-05-14T03:30:55.564Z,27.8
2019-05-14T03:32:02.715Z,27.8
2019-05-14T03:33:06.027Z,27.9
2019-05-14T03:34:13.284Z,27.7
2019-05-14T03:35:22.533Z,27.8
2019-05-14T03:36:26.142Z,27.7
2019-05-14T03:37:30.573Z,27.9
2019-05-14T03:38:31.443Z,27.7
2019-05-14T03:39:33.707Z,27.9
2019-05-14T03:40:36.129Z,27.6
2019-05-14T03:41:41.586Z,27.9
2019-05-14T03:42:44.019Z,27.6
2019-05-14T03:43:50.918Z,27.8
2019-05-14T03:44:53.523Z,27.8
2019-05-14T03:45:58.978Z,27.7
2019-05-14T03:47:04.916Z,27.9
2019-05-14T03:48:05.952Z,27.7
2019-05-14T03:49:11.436Z,27.7
2019-05-14T03:50:13.558Z,27.9
2019-05-14T03:51:15.726Z,27.5
2019-05-14T03:52:21.864Z,27.9
2019-05-14T03:53:24.034Z,28
2019-05-14T03:54:30.460Z,27.8
2019-05-14T03:55:32.634Z,27.7
2019-05-14T03:56:34.793Z,27.7
2019-05-14T03:59:12.307Z,27.9
2019-05-14T04:00:14.986Z,27.6
2019-05-14T04:01:20.446Z,28
2019-05-14T04:02:22.889Z,27.6
2019-05-14T04:03:25.319Z,27.5
2019-05-14T04:04:30.776Z,27.7
2019-05-14T04:05:33.235Z,27.6
2019-05-14T04:06:35.703Z,27.4
2019-05-14T04:07:41.644Z,27.6
2019-05-14T04:08:44.426Z,27.4
2019-05-14T04:09:51.326Z,27.6
2019-05-14T04:10:54.343Z,27.7
2019-05-14T04:12:00.679Z,27.5
2019-05-14T04:13:03.176Z,27.5
2019-05-14T04:14:10.474Z,27.6
2019-05-14T04:15:12.915Z,27.7
2019-05-14T04:16:15.354Z,27.6
2019-05-14T04:17:32.078Z,27.6
2019-05-14T04:18:28.905Z,27.6
2019-05-14T04:19:31.280Z,27.6
2019-05-14T04:20:33.715Z,27.6
2019-05-14T04:21:35.315Z,27.3
2019-05-14T04:22:41.199Z,27.6
2019-05-14T04:23:43.639Z,27.6
2019-05-14T04:24:49.354Z,27.5
2019-05-14T04:25:50.782Z,27.5
2019-05-14T04:27:01.938Z,27.4
2019-05-14T04:27:59.670Z,27.5
2019-05-14T04:29:02.248Z,27.6
2019-05-14T04:30:04.402Z,27.5
2019-05-14T04:31:10.816Z,27.7
2019-05-14T04:32:13.304Z,27.6
2019-05-14T04:33:18.713Z,27.6
2019-05-14T04:34:21.012Z,27.6
2019-05-14T04:35:23.189Z,27.5
2019-05-14T04:36:25.994Z,27.5
2019-05-14T04:37:31.446Z,27.6
2019-05-14T04:38:33.883Z,27.3
2019-05-14T04:39:41.403Z,27.6
2019-05-14T04:40:43.837Z,27.6
2019-05-14T04:41:45.721Z,27.5
2019-05-14T04:42:51.196Z,27.5
2019-05-14T04:43:53.093Z,27.4
2019-05-14T04:44:55.431Z,27.5
2019-05-14T04:46:00.898Z,27.7
2019-05-14T04:47:20.146Z,27.6
2019-05-14T04:48:23.822Z,27.4
2019-05-14T04:49:12.500Z,27.5
2019-05-14T04:50:14.658Z,27.5
2019-05-14T04:51:19.441Z,27.4
2019-05-14T04:52:21.521Z,27.8
2019-05-14T04:53:23.948Z,27.5
2019-05-14T04:54:29.838Z,27.3
2019-05-14T04:55:31.980Z,27.4
2019-05-14T04:56:34.409Z,27.4
2019-05-14T04:57:40.967Z,27.6
2019-05-14T04:58:43.378Z,27.4
2019-05-14T04:59:49.109Z,27.7
2019-05-14T05:00:50.808Z,27.5
2019-05-14T05:01:53.257Z,27.6
2019-05-14T05:02:55.409Z,27.3
2019-05-14T05:04:01.076Z,27.4
2019-05-14T05:05:02.963Z,27.5
2019-05-14T05:06:10.507Z,27.5
2019-05-14T05:07:12.953Z,27.4
2019-05-14T05:08:15.994Z,27.4
2019-05-14T05:09:21.461Z,27.6
2019-05-14T05:10:23.346Z,27.4
2019-05-14T05:11:25.510Z,27.4
2019-05-14T05:12:30.973Z,27.5
2019-05-14T05:13:33.143Z,27.5
2019-05-14T05:14:38.484Z,27.6
2019-05-14T05:15:40.555Z,27.7
2019-05-14T05:16:42.437Z,27.5
2019-05-14T05:17:49.533Z,27.5
2019-05-14T05:18:49.843Z,27.5
2019-05-14T05:19:52.274Z,27.4
2019-05-14T05:20:54.440Z,27.4
2019-05-14T05:22:01.064Z,27.4
2019-05-14T05:23:03.207Z,27.6
2019-05-14T05:24:05.358Z,27.6
2019-05-14T05:25:11.781Z,27.4
2019-05-14T05:26:14.144Z,27.6
2019-05-14T05:27:21.037Z,27.5
2019-05-14T05:28:22.925Z,27.4
2019-05-14T05:29:25.354Z,27.4
2019-05-14T05:30:30.057Z,27.5
2019-05-14T05:31:32.222Z,27.4
2019-05-14T05:32:33.839Z,27.5
2019-05-14T05:33:38.341Z,27.5
2019-05-14T05:34:40.856Z,27.4
2019-05-14T05:35:43.894Z,27.4
2019-05-14T05:36:47.873Z,27.6
2019-05-14T05:37:51.054Z,27.4
2019-05-14T05:38:53.495Z,27.5
2019-05-14T05:39:55.636Z,27.6
2019-05-14T05:41:00.476Z,27.2
2019-05-14T05:42:02.971Z,27.5
2019-05-14T05:43:05.134Z,27.6
2019-05-14T05:44:11.098Z,27.5
2019-05-14T05:45:13.528Z,27.6
2019-05-14T05:46:15.421Z,27.4
2019-05-14T05:47:21.359Z,27.5
2019-05-14T05:48:24.110Z,27.5
2019-05-14T05:49:30.747Z,27.4
2019-05-14T05:50:32.904Z,27.4
2019-05-14T05:51:35.675Z,27.4
2019-05-14T05:52:41.836Z,27.5
2019-05-14T05:53:43.997Z,27.4
2019-05-14T05:54:50.695Z,27.4
2019-05-14T05:55:53.120Z,27.4
2019-05-14T05:56:58.100Z,27.4
2019-05-14T05:58:00.994Z,27.5
2019-05-14T05:59:03.287Z,27.5
2019-05-14T06:00:05.918Z,27.4
2019-05-14T06:01:11.874Z,27.5
2019-05-14T06:02:14.328Z,27.6
2019-05-14T06:03:21.203Z,27.6
2019-05-14T06:04:23.652Z,27.3
2019-05-14T06:05:31.181Z,27.5
2019-05-14T06:06:33.327Z,27.3
2019-05-14T06:07:35.746Z,27.4
2019-05-14T06:08:41.684Z,27.6
2019-05-14T06:09:44.127Z,27.6
2019-05-14T06:10:49.056Z,27.5
2019-05-14T06:11:51.542Z,27.4
2019-05-14T06:12:53.963Z,27.4
2019-05-14T06:13:55.552Z,27.5
2019-05-14T06:15:01.486Z,27.4
2019-05-14T06:16:03.654Z,27.3
2019-05-14T06:17:08.295Z,27.4
2019-05-14T06:18:17.231Z,27.4
2019-05-14T06:19:15.787Z,27.5
2019-05-14T06:20:20.165Z,27.5
2019-05-14T06:21:22.938Z,27.4
2019-05-14T06:22:25.379Z,27.6
2019-05-14T06:23:29.707Z,27.4
2019-05-14T06:24:32.337Z,27.5
2019-05-14T06:25:34.783Z,27.3
2019-05-14T06:26:41.698Z,27.3
2019-05-14T06:27:44.124Z,27.3
2019-05-14T06:28:49.745Z,27.5
2019-05-14T06:29:54.390Z,27.4
2019-05-14T06:31:00.670Z,27.3
2019-05-14T06:32:03.107Z,27.5
2019-05-14T06:33:05.241Z,27.7
2019-05-14T06:34:11.212Z,27.6
2019-05-14T06:35:13.643Z,27.4
2019-05-14T06:36:19.077Z,27.6
2019-05-14T06:37:21.248Z,27.3
2019-05-14T06:38:23.673Z,27.4
2019-05-14T06:39:28.104Z,27.6
2019-05-14T06:40:30.548Z,27.3
2019-05-14T06:41:32.985Z,27.4
2019-05-14T06:42:34.851Z,27.4
2019-05-14T06:43:41.513Z,27.5
2019-05-14T06:44:44.134Z,27.5
2019-05-14T06:45:49.279Z,27.4
2019-05-14T06:46:52.866Z,27.6
2019-05-14T06:47:55.531Z,27.3
2019-05-14T06:49:00.234Z,27.5
2019-05-14T06:50:02.095Z,27.4
2019-05-14T06:51:04.267Z,27.4
2019-05-14T06:52:11.169Z,27.5
2019-05-14T06:53:13.293Z,27.5
2019-05-14T06:54:15.445Z,27.4
2019-05-14T06:55:20.917Z,27.4
2019-05-14T06:56:23.349Z,27.4
2019-05-14T06:57:25.686Z,27.4
2019-05-14T06:58:31.146Z,27.3
2019-05-14T06:59:33.586Z,27.4
2019-05-14T07:00:35.456Z,27.5
2019-05-14T07:01:41.129Z,27.5
2019-05-14T07:02:44.282Z,27.4
2019-05-14T07:03:51.262Z,27.5
2019-05-14T07:04:53.152Z,27.4
2019-05-14T07:05:55.583Z,27.3
2019-05-14T07:07:01.995Z,27.5
2019-05-14T07:08:04.440Z,27.4
2019-05-14T07:09:10.598Z,27.3
2019-05-14T07:10:12.757Z,27.3
2019-05-14T07:11:15.180Z,27.6
2019-05-14T07:12:21.445Z,27.2
2019-05-14T07:13:23.334Z,27.3
2019-05-14T07:14:25.214Z,27.3
2019-05-14T07:15:30.672Z,27.3
2019-05-14T07:16:33.117Z,27.4
2019-05-14T07:17:38.131Z,27.4
2019-05-14T07:18:52.680Z,27.5
2019-05-14T07:19:45.519Z,27.4
2019-05-14T07:20:51.466Z,27.3
2019-05-14T07:21:54.506Z,27.3
2019-05-14T07:23:00.937Z,27.3
2019-05-14T07:24:03.100Z,27.4
2019-05-14T07:25:06.029Z,27.3
2019-05-14T07:26:11.487Z,27.2
2019-05-14T07:27:13.845Z,27.4
2019-05-14T07:28:16.267Z,27.3
2019-05-14T07:29:21.729Z,27.4
2019-05-14T07:30:25.632Z,27.3
2019-05-14T07:31:31.102Z,27.3
2019-05-14T07:32:33.257Z,27.4
2019-05-14T07:33:35.424Z,27.3
2019-05-14T07:34:40.883Z,27.4
2019-05-14T07:35:43.199Z,27.1
2019-05-14T07:36:45.360Z,27.1
2019-05-14T07:37:51.300Z,27.4
2019-05-14T07:38:56.460Z,27.3
2019-05-14T07:39:58.977Z,27.3
2019-05-14T07:41:01.440Z,27.2
2019-05-14T07:42:03.871Z,27.2
2019-05-14T07:43:08.823Z,27.4
2019-05-14T07:44:11.290Z,27.3
2019-05-14T07:45:13.703Z,27.3
2019-05-14T07:46:16.127Z,27.4
2019-05-14T07:47:21.595Z,27.4
2019-05-14T07:48:24.017Z,27.4
2019-05-14T07:49:25.913Z,27.1
2019-05-14T07:50:31.577Z,27.3
2019-05-14T07:51:34.002Z,27.1
2019-05-14T07:52:35.881Z,27.4
2019-05-14T07:53:42.440Z,27.3
2019-05-14T07:54:44.497Z,27.3
2019-05-14T07:55:49.382Z,27.2
2019-05-14T07:56:52.989Z,27.3
2019-05-14T07:57:55.285Z,27.2
2019-05-14T07:59:02.296Z,27.5
2019-05-14T08:00:04.816Z,27.3
2019-05-14T08:01:10.761Z,27.3
2019-05-14T08:02:13.196Z,27.4
2019-05-14T08:03:15.355Z,27.2
2019-05-14T08:04:21.512Z,27.2
2019-05-14T08:05:24.133Z,27.3
2019-05-14T08:06:28.116Z,27.2
2019-05-14T08:07:30.658Z,27.5
2019-05-14T08:08:33.087Z,27.3
2019-05-14T08:09:35.223Z,27.4
2019-05-14T08:10:41.163Z,27.1
2019-05-14T08:11:44.183Z,27.3
2019-05-14T08:12:48.672Z,27.4
2019-05-14T08:13:50.554Z,27.4
2019-05-14T08:15:10.748Z,27.4
2019-05-14T08:15:58.441Z,27.4
2019-05-14T08:17:00.917Z,27.3
2019-05-14T08:18:03.689Z,27.1
2019-05-14T08:19:24.043Z,27.4
2019-05-14T08:20:15.577Z,27.3
2019-05-14T08:21:20.204Z,27.3
2019-05-14T08:22:22.649Z,27.3
2019-05-14T08:23:24.790Z,27.4
2019-05-14T08:24:30.728Z,27.3
2019-05-14T08:25:32.896Z,27.3
2019-05-14T08:26:35.334Z,27.3
2019-05-14T08:27:40.795Z,27.3
2019-05-14T08:28:43.234Z,27.4
2019-05-14T08:29:45.646Z,27.3
2019-05-14T08:30:51.115Z,27.2
2019-05-14T08:31:53.545Z,27.3
2019-05-14T08:33:00.453Z,27.2
2019-05-14T08:34:04.584Z,27.3
2019-05-14T08:35:09.003Z,27.4
2019-05-14T08:36:11.285Z,27.4
2019-05-14T08:37:13.467Z,27.2
2019-05-14T08:38:18.290Z,27.4
2019-05-14T08:39:21.077Z,27.3
2019-05-14T08:40:23.497Z,27.2
2019-05-14T08:41:25.386Z,27.3
2019-05-14T08:42:33.958Z,27.5
2019-05-14T08:43:36.310Z,27.4
2019-05-14T08:44:41.498Z,27.4
2019-05-14T08:45:45.462Z,27.4
2019-05-14T08:46:50.810Z,27.2
2019-05-14T08:47:52.977Z,27.3
2019-05-14T08:48:55.337Z,27.3
2019-05-14T08:50:00.811Z,27.2
2019-05-14T08:51:02.950Z,27.2
2019-05-14T08:52:05.393Z,27.1
2019-05-14T08:53:10.863Z,27.3
2019-05-14T08:54:13.296Z,27.1
2019-05-14T08:55:18.296Z,27.3
2019-05-14T08:56:20.709Z,27.1
2019-05-14T08:57:22.988Z,27.2
2019-05-14T08:58:26.233Z,27.3
2019-05-14T08:59:31.887Z,27.2
2019-05-14T09:00:34.053Z,27.1
2019-05-14T09:01:38.680Z,27.2
2019-05-14T09:02:41.465Z,27.2
2019-05-14T09:03:43.882Z,27.4
2019-05-14T09:04:52.550Z,27.1
2019-05-14T09:05:51.321Z,27.3
2019-05-14T09:06:53.753Z,27.2
2019-05-14T09:08:00.640Z,27.2
2019-05-14T09:09:03.416Z,27.2
2019-05-14T09:10:08.464Z,27.2
2019-05-14T09:11:11.007Z,27.2
2019-05-14T09:12:13.429Z,27.3
2019-05-14T09:13:18.166Z,27.2
2019-05-14T09:14:20.567Z,27.3
2019-05-14T09:15:23.006Z,27.2
2019-05-14T09:16:39.283Z,27.1
2019-05-14T09:17:29.878Z,27.1
2019-05-14T09:18:32.327Z,27.2
2019-05-14T09:19:34.778Z,27.1
2019-05-14T09:20:41.689Z,27.3
2019-05-14T09:21:44.120Z,27.2
2019-05-14T09:22:48.980Z,27.3
2019-05-14T09:23:51.735Z,27.3
2019-05-14T09:24:54.165Z,27.2
2019-05-14T09:25:58.747Z,27.1
2019-05-14T09:27:01.592Z,27.3
2019-05-14T09:28:09.033Z,27
2019-05-14T09:29:21.974Z,27.3
2019-05-14T09:30:18.475Z,27.2
2019-05-14T09:31:21.247Z,27.3
2019-05-14T09:32:23.613Z,27.1
2019-05-14T09:33:26.274Z,27.1
2019-05-14T09:34:31.716Z,27.3
2019-05-14T09:35:33.605Z,27.1
2019-05-14T09:36:36.038Z,27.2
2019-05-14T09:37:41.680Z,27.2
2019-05-14T09:38:44.127Z,27.2
2019-05-14T09:39:48.643Z,27.3
2019-05-14T09:41:06.904Z,27
2019-05-14T09:41:58.071Z,27.4
2019-05-14T09:42:59.791Z,27.2
2019-05-14T09:44:01.957Z,27.1
2019-05-14T09:45:04.401Z,27
2019-05-14T09:46:10.827Z,27.3
2019-05-14T09:47:12.995Z,27.3
2019-05-14T09:48:15.413Z,27.1
2019-05-14T09:49:19.977Z,27.3
2019-05-14T09:50:23.529Z,27.4
2019-05-14T09:51:26.141Z,27.2
2019-05-14T09:52:30.521Z,27.3
2019-05-14T09:55:04.413Z,27.2
2019-05-14T09:56:11.348Z,27.2
2019-05-14T09:57:13.500Z,27.2
2019-05-14T09:58:15.671Z,27.3
2019-05-14T09:59:21.761Z,27.4
2019-05-14T10:00:23.923Z,27.3
2019-05-14T10:01:26.077Z,27.1
2019-05-14T10:02:28.520Z,27
2019-05-14T10:03:30.966Z,27.2
2019-05-14T10:04:33.123Z,27.1
2019-05-14T10:05:35.314Z,27.1
2019-05-14T10:06:39.153Z,27.2
2019-05-14T10:07:41.453Z,27.2
2019-05-14T10:08:44.094Z,27.3
2019-05-14T10:09:50.996Z,27.1
2019-05-14T10:10:52.871Z,27.2
2019-05-14T10:11:55.318Z,27.3
2019-05-14T10:13:01.237Z,27.2
2019-05-14T10:14:04.770Z,27.2
2019-05-14T10:15:09.149Z,27.3
2019-05-14T10:16:11.590Z,27.2
2019-05-14T10:17:14.037Z,27.2
2019-05-14T10:18:20.455Z,27
2019-05-14T10:19:22.904Z,27.3
2019-05-14T10:20:37.416Z,27.3
2019-05-14T10:21:30.321Z,27.1
2019-05-14T10:22:32.502Z,27.2
2019-05-14T10:23:34.937Z,27.2
2019-05-14T10:24:41.359Z,27.2
2019-05-14T10:25:43.513Z,27
2019-05-14T10:26:48.205Z,27.3
2019-05-14T10:27:50.937Z,27.3
2019-05-14T10:28:53.356Z,27.2
2019-05-14T10:29:55.805Z,27.2
2019-05-14T10:31:03.611Z,27.3
2019-05-14T10:32:05.466Z,27.1
2019-05-14T10:33:14.847Z,27.3
2019-05-14T10:34:15.916Z,27.3
2019-05-14T10:35:21.380Z,27.1
2019-05-14T10:36:24.357Z,27.4
2019-05-14T10:37:28.730Z,27.1
2019-05-14T10:38:31.544Z,27.2
2019-05-14T10:39:33.975Z,27.3
2019-05-14T10:40:40.872Z,27.1
2019-05-14T10:41:43.025Z,27.2
2019-05-14T10:42:45.465Z,27.4
2019-05-14T10:43:50.936Z,27.2
2019-05-14T10:44:53.366Z,27.3
2019-05-14T10:45:55.268Z,27.1
2019-05-14T10:47:00.732Z,27.3
2019-05-14T10:48:02.899Z,27.3
2019-05-14T10:49:16.286Z,27.4
2019-05-14T10:50:13.666Z,27.4
2019-05-14T10:51:15.007Z,27.1
2019-05-14T10:52:20.469Z,27.1
2019-05-14T10:53:22.972Z,27.2
2019-05-14T10:54:26.690Z,27.2
2019-05-14T10:55:30.381Z,27.2
2019-05-14T10:56:32.820Z,27.4
2019-05-14T10:57:34.950Z,27.1
2019-05-14T10:58:37.105Z,27.3
2019-05-14T10:59:39.548Z,27.2
2019-05-14T11:00:42.193Z,27.3
2019-05-14T11:01:44.615Z,27.3
2019-05-14T11:02:49.046Z,27.3
2019-05-14T11:03:51.753Z,27.3
2019-05-14T11:04:54.191Z,27.3
2019-05-14T11:06:01.109Z,27.3
2019-05-14T11:07:03.265Z,27.3
2019-05-14T11:08:06.029Z,27.3
2019-05-14T11:09:12.115Z,27.3
2019-05-14T11:10:14.266Z,27.2
2019-05-14T11:11:20.904Z,27.3
2019-05-14T11:12:23.335Z,27.3
2019-05-14T11:13:28.851Z,27
2019-05-14T11:14:31.856Z,27.3
2019-05-14T11:15:34.359Z,27.2
2019-05-14T11:16:42.012Z,27.1
2019-05-14T11:17:44.507Z,27.3
2019-05-14T11:18:50.934Z,27.4
2019-05-14T11:19:52.818Z,27.2
2019-05-14T11:20:54.986Z,27.1
2019-05-14T11:22:00.461Z,27.3
2019-05-14T11:23:02.871Z,27.2
2019-05-14T11:24:05.207Z,27.2
2019-05-14T11:25:11.631Z,27.2
2019-05-14T11:26:14.046Z,27.2
2019-05-14T11:27:20.673Z,27.3
2019-05-14T11:28:23.103Z,27.3
2019-05-14T11:29:25.253Z,27.1
2019-05-14T11:30:31.201Z,27.2
2019-05-14T11:31:34.387Z,27.1
2019-05-14T11:32:41.358Z,27.3
2019-05-14T11:33:43.810Z,27.3
2019-05-14T11:34:46.273Z,27.2
2019-05-14T11:35:48.726Z,27.3
2019-05-14T11:36:51.149Z,27.4
2019-05-14T11:37:53.077Z,27.2
2019-05-14T11:38:55.506Z,27.2
2019-05-14T11:40:00.972Z,27.2
2019-05-14T11:41:03.426Z,27.3
2019-05-14T11:42:08.254Z,27.2
2019-05-14T11:43:10.577Z,27.3
2019-05-14T11:44:13.386Z,27.2
2019-05-14T11:45:15.837Z,27.3
2019-05-14T11:46:26.904Z,27.1
2019-05-14T11:47:23.287Z,27.3
2019-05-14T11:48:25.719Z,27.3
2019-05-14T11:49:27.896Z,27.3
2019-05-14T11:50:30.057Z,27.4
2019-05-14T11:51:58.202Z,27.1
2019-05-14T11:52:38.789Z,27.3
2019-05-14T11:53:41.124Z,27.1
2019-05-14T11:54:43.554Z,27.2
2019-05-14T11:55:46.000Z,27.4
2019-05-14T11:56:51.458Z,27
2019-05-14T11:57:53.662Z,27.3
2019-05-14T11:59:00.559Z,27.1
2019-05-14T12:00:02.733Z,27.2
2019-05-14T12:01:04.619Z,27.4
2019-05-14T12:02:11.531Z,27.3
2019-05-14T12:03:13.979Z,27.1
2019-05-14T12:04:20.907Z,27.2
2019-05-14T12:05:23.331Z,27.4
2019-05-14T12:06:25.774Z,27.4
2019-05-14T12:07:28.144Z,27.2
2019-05-14T12:08:30.584Z,27.3
2019-05-14T12:09:33.189Z,27.2
2019-05-14T12:10:35.627Z,27.4
2019-05-14T12:11:41.120Z,27.3
2019-05-14T12:12:43.735Z,27.4
2019-05-14T12:13:48.410Z,27.2
2019-05-14T12:14:50.904Z,27
2019-05-14T12:15:53.046Z,27.2
2019-05-14T12:16:55.510Z,27.2
2019-05-14T12:18:01.455Z,27.3
2019-05-14T12:19:03.887Z,27.1
2019-05-14T12:20:06.327Z,27
2019-05-14T12:21:09.104Z,27.3
2019-05-14T12:22:11.651Z,27.2
2019-05-14T12:23:14.929Z,27.1
2019-05-14T12:24:21.540Z,27.4
2019-05-14T12:25:23.431Z,27.4
2019-05-14T12:26:28.055Z,27.2
2019-05-14T12:27:30.847Z,27.3
2019-05-14T12:28:33.002Z,27.3
2019-05-14T12:29:35.171Z,27.3
2019-05-14T12:30:41.591Z,27.3
2019-05-14T12:31:44.019Z,27.3
2019-05-14T12:32:50.937Z,27.4
2019-05-14T12:33:53.104Z,27.4
2019-05-14T12:34:55.558Z,27.2
2019-05-14T12:36:01.495Z,27.2
2019-05-14T12:37:03.657Z,27.2
2019-05-14T12:38:05.734Z,27.4
2019-05-14T12:39:12.617Z,27.2
2019-05-14T12:40:15.061Z,27.3
2019-05-14T12:41:21.495Z,27.2
2019-05-14T12:42:23.931Z,27.3
2019-05-14T12:43:28.141Z,27.3
2019-05-14T12:44:30.976Z,27.4
2019-05-14T12:45:33.407Z,27.3
2019-05-14T12:46:35.834Z,27
2019-05-14T12:47:38.545Z,27.3
2019-05-14T12:48:40.779Z,27.2
2019-05-14T12:49:43.202Z,27.3
2019-05-14T12:50:45.640Z,27.3
2019-05-14T12:51:51.098Z,27.2
2019-05-14T12:52:53.523Z,27.3
2019-05-14T12:53:58.075Z,27.4
2019-05-14T12:55:00.377Z,27.2
2019-05-14T12:56:02.540Z,27.4
2019-05-14T12:57:04.699Z,27.3
2019-05-14T12:58:08.202Z,27.2
2019-05-14T12:59:10.181Z,27.3
2019-05-14T13:00:11.800Z,27.4
2019-05-14T13:01:14.246Z,27.2
2019-05-14T13:02:18.707Z,27.2
2019-05-14T13:03:21.003Z,27.2
2019-05-14T13:04:23.198Z,27.2
2019-05-14T13:05:25.057Z,27
2019-05-14T13:06:31.477Z,27.3
2019-05-14T13:07:33.639Z,27.4
2019-05-14T13:08:38.362Z,27
2019-05-14T13:09:41.054Z,27.1
2019-05-14T13:10:43.488Z,27.2
2019-05-14T13:11:47.857Z,27.4
2019-05-14T13:12:50.604Z,27.2
2019-05-14T13:13:53.048Z,27.1
2019-05-14T13:14:57.784Z,27.3
2019-05-14T13:16:03.881Z,27.1
2019-05-14T13:17:05.446Z,27.5
2019-05-14T13:18:11.869Z,27.3
2019-05-14T13:19:13.738Z,27.4
2019-05-14T13:20:15.620Z,27.1
2019-05-14T13:21:21.073Z,27.3
2019-05-14T13:22:38.183Z,27.3
2019-05-14T13:23:29.160Z,27.3
2019-05-14T13:24:31.477Z,27.2
2019-05-14T13:25:33.618Z,27.3
2019-05-14T13:26:35.782Z,27.4
2019-05-14T13:27:40.975Z,27.2
2019-05-14T13:28:43.137Z,27.4
2019-05-14T13:29:45.571Z,27.2
2019-05-14T13:30:51.032Z,27.4
2019-05-14T13:31:53.474Z,27.2
2019-05-14T13:32:55.366Z,27.2
2019-05-14T13:34:01.308Z,27.3
2019-05-14T13:35:03.736Z,27.3
2019-05-14T13:36:10.634Z,27.5
2019-05-14T13:37:12.515Z,27.3
2019-05-14T13:38:14.783Z,27.3
2019-05-14T13:39:19.359Z,27.3
2019-05-14T13:40:22.170Z,27.2
2019-05-14T13:41:24.339Z,27.2
2019-05-14T13:42:29.610Z,27.2
2019-05-14T13:43:32.129Z,27.3
2019-05-14T13:44:35.187Z,27.2
2019-05-14T13:45:40.652Z,27.2
2019-05-14T13:46:43.094Z,27.3
2019-05-14T13:47:45.263Z,27.1
2019-05-14T13:48:50.711Z,27.4
2019-05-14T13:49:53.126Z,27.2
2019-05-14T13:50:55.566Z,27.2
2019-05-14T13:51:57.757Z,27.2
2019-05-14T13:53:06.655Z,27.4
2019-05-14T13:54:05.193Z,27.2
2019-05-14T13:55:10.881Z,27.5
2019-05-14T13:56:13.016Z,27.4
2019-05-14T13:57:15.621Z,27.2
2019-05-14T13:58:21.220Z,27.4
2019-05-14T13:59:23.643Z,27.2
2019-05-14T14:00:25.560Z,27.3
2019-05-14T14:01:29.662Z,27.2
2019-05-14T14:02:31.958Z,27.2
2019-05-14T14:03:34.453Z,27.1
2019-05-14T14:04:41.521Z,27.4
2019-05-14T14:05:43.966Z,27.4
2019-05-14T14:06:46.409Z,27.3
2019-05-14T14:07:51.598Z,27.2
2019-05-14T14:08:54.026Z,27.2
2019-05-14T14:09:58.948Z,27.3
2019-05-14T14:11:03.631Z,27.3